Time;durP1;ratioP1;P1;durP2;ratioP2;P2;SDS_P1;SDS_P2;PMS_P1;PMS_P2;Temp;Humidity;BMP_temperature;BMP_pressure;BME280_temperature;BME280_humidity;BME280_pressure;Samples;Min_cycle;Max_cycle;Signal;HPM_P1;HPM_P2
2021/08/16 00:02:20;;;;;;;;;7.00;5.25;;;;;21.34;56.67;101318.28;5000169;28;45329;-81
2021/08/16 00:04:45;;;;;;;;;3.25;3.25;;;;;21.35;56.38;101331.56;4999632;28;46331;-81
2021/08/16 00:07:11;;;;;;;;;5.25;4.50;;;;;21.39;56.18;101334.84;5000115;28;45321;-81
2021/08/16 00:09:36;;;;;;;;;5.00;3.00;;;;;21.42;55.80;101328.44;4999848;28;45523;-80
2021/08/16 00:12:01;;;;;;;;;2.50;2.50;;;;;21.42;55.61;101333.78;4999990;28;45430;-80
2021/08/16 00:14:27;;;;;;;;;5.50;4.00;;;;;21.42;55.12;101340.00;4999363;28;46525;-80
2021/08/16 00:16:52;;;;;;;;;2.75;2.50;;;;;21.45;55.88;101330.91;4998376;28;45738;-81
2021/08/16 00:19:17;;;;;;;;;2.75;2.00;;;;;21.52;55.03;101336.66;4999327;28;45238;-82
2021/08/16 00:21:43;;;;;;;;;4.25;2.25;;;;;21.52;54.76;101337.53;4999614;28;45542;-82
2021/08/16 00:24:08;;;;;;;;;3.50;3.25;;;;;21.58;55.72;101346.94;4999646;28;45308;-82
2021/08/16 00:26:33;;;;;;;;;5.50;4.25;;;;;21.63;55.00;101336.75;4999313;28;45213;-82
2021/08/16 00:28:59;;;;;;;;;5.50;5.00;;;;;21.64;54.82;101327.78;4980528;28;45285;-82
2021/08/16 00:31:26;;;;;;;;;4.00;2.00;;;;;21.67;53.08;101332.03;4999364;28;45404;-82
2021/08/16 00:33:51;;;;;;;;;2.25;1.00;;;;;21.57;52.86;101316.66;4999319;28;45317;-82
2021/08/16 00:36:17;;;;;;;;;3.00;3.00;;;;;21.50;53.29;101319.88;4999513;28;45534;-82
2021/08/16 00:38:42;;;;;;;;;1.75;1.00;;;;;21.39;52.67;101316.13;4999037;28;45513;-80
2021/08/16 00:41:08;;;;;;;;;3.75;3.00;;;;;21.31;54.10;101318.50;4999289;28;45535;-80
2021/08/16 00:43:33;;;;;;;;;4.25;2.00;;;;;21.34;53.95;101324.47;4998345;28;45438;-81
2021/08/16 00:45:59;;;;;;;;;5.75;3.00;;;;;21.34;54.43;101316.47;4981812;28;45332;-83
2021/08/16 00:48:24;;;;;;;;;4.25;3.75;;;;;21.43;53.79;101317.66;4999257;28;45449;-83
2021/08/16 00:50:50;;;;;;;;;4.75;2.00;;;;;21.47;53.01;101324.47;4999253;28;45293;-83
2021/08/16 00:53:16;;;;;;;;;2.00;2.00;;;;;21.39;52.10;101308.09;4999400;28;46568;-82
2021/08/16 00:55:42;;;;;;;;;4.00;2.25;;;;;21.35;52.49;101315.50;4999269;28;45467;-82
2021/08/16 00:58:07;;;;;;;;;4.50;4.00;;;;;21.34;52.55;101319.13;4999077;28;45430;-86
2021/08/16 01:00:33;;;;;;;;;6.00;2.25;;;;;21.31;53.22;101316.66;4999490;28;45423;-80
2021/08/16 01:02:59;;;;;;;;;2.00;1.50;;;;;21.36;54.17;101311.84;4999286;28;45285;-81
2021/08/16 01:05:24;;;;;;;;;5.25;5.25;;;;;21.46;53.34;101313.88;4998879;28;45470;-84
2021/08/16 01:07:49;;;;;;;;;2.50;2.50;;;;;21.56;53.78;101311.41;4999021;28;45285;-83
2021/08/16 01:10:20;;;;;;;;;2.25;2.25;;;;;21.61;53.39;101314.59;4998489;28;45480;-83
2021/08/16 01:12:46;;;;;;;;;1.75;1.75;;;;;21.65;52.35;101309.91;4998439;28;45817;-80
2021/08/16 01:15:13;;;;;;;;;3.00;3.00;;;;;21.61;51.91;101303.91;4998393;28;45324;-80
2021/08/16 01:17:40;;;;;;;;;4.50;3.00;;;;;21.57;52.43;101308.63;4999378;28;45239;-80
2021/08/16 01:20:09;;;;;;;;;4.00;3.25;;;;;21.56;52.81;101300.69;4998959;28;45425;-79
2021/08/16 01:22:34;;;;;;;;;3.00;1.50;;;;;21.57;53.28;101305.97;4999264;28;45561;-85
2021/08/16 01:25:01;;;;;;;;;4.50;2.25;;;;;21.66;53.32;101300.91;4998592;28;45358;-81
2021/08/16 01:27:26;;;;;;;;;2.25;1.75;;;;;21.73;52.74;101302.16;4994591;28;45353;-82
2021/08/16 01:29:52;;;;;;;;;2.75;2.75;;;;;21.79;53.27;101312.44;4998389;28;45456;-81
2021/08/16 01:32:17;;;;;;;;;1.75;1.75;;;;;21.86;53.36;101301.28;4990240;28;46541;-81
2021/08/16 01:34:42;;;;;;;;;1.00;1.00;;;;;21.93;52.43;101307.94;4994710;28;45222;-81
2021/08/16 01:37:08;;;;;;;;;2.00;2.00;;;;;21.91;51.29;101304.50;4998933;28;45502;-81
2021/08/16 01:39:33;;;;;;;;;3.00;1.50;;;;;21.76;51.94;101311.78;4999039;28;45375;-80
2021/08/16 01:41:59;;;;;;;;;3.50;2.00;;;;;21.61;51.23;101303.91;4999880;28;45524;-81
2021/08/16 01:44:24;;;;;;;;;3.00;2.00;;;;;21.57;52.14;101318.47;4988782;28;45216;-81
2021/08/16 01:46:51;;;;;;;;;3.00;2.00;;;;;21.59;53.07;101322.75;5000947;28;46154;-80
2021/08/16 01:49:17;;;;;;;;;1.75;1.75;;;;;21.63;53.43;101319.88;5002240;28;45387;-81
2021/08/16 01:51:43;;;;;;;;;4.00;1.00;;;;;21.72;52.43;101313.84;5001125;28;46289;-83
2021/08/16 01:54:10;;;;;;;;;1.00;1.00;;;;;21.75;53.05;101315.47;5002128;28;45439;-82
2021/08/16 01:56:36;;;;;;;;;2.50;1.75;;;;;21.80;52.40;101318.66;5001777;28;45396;-82
2021/08/16 01:59:01;;;;;;;;;2.25;2.25;;;;;21.76;53.08;101304.63;5001229;28;45292;-86
2021/08/16 02:01:27;;;;;;;;;3.00;2.00;;;;;21.85;52.99;101315.66;5001444;28;45500;-84
2021/08/16 02:03:53;;;;;;;;;2.00;1.25;;;;;21.92;52.66;101316.94;5000602;28;45816;-84
2021/08/16 02:06:19;;;;;;;;;1.75;1.75;;;;;21.90;52.95;101314.34;5001939;28;45210;-85
2021/08/16 02:08:45;;;;;;;;;2.75;1.25;;;;;21.94;52.57;101320.34;5001546;28;45254;-85
2021/08/16 02:11:10;;;;;;;;;2.00;2.00;;;;;21.90;52.95;101302.81;5001356;28;46651;-83
2021/08/16 02:13:35;;;;;;;;;4.25;2.25;;;;;21.96;52.26;101304.19;5005480;28;45214;-82
2021/08/16 02:16:02;;;;;;;;;4.25;2.00;;;;;22.00;53.16;101316.38;5003869;28;45492;-86
2021/08/16 02:18:27;;;;;;;;;2.75;2.75;;;;;22.05;52.26;101316.03;5001093;28;45332;-84
2021/08/16 02:20:53;;;;;;;;;3.00;2.00;;;;;22.02;51.87;101318.00;5001442;28;45717;-83
2021/08/16 02:23:18;;;;;;;;;3.25;2.00;;;;;21.98;52.54;101311.13;5000042;28;45456;-85
2021/08/16 02:25:43;;;;;;;;;2.25;2.25;;;;;22.05;52.37;101310.69;5001761;28;45388;-83
2021/08/16 02:28:09;;;;;;;;;1.00;1.00;;;;;22.09;52.31;101314.84;5000349;28;45309;-85
2021/08/16 02:30:34;;;;;;;;;2.50;2.50;;;;;22.07;52.73;101319.47;4979645;28;47192;-82
2021/08/16 02:33:00;;;;;;;;;4.50;1.25;;;;;22.03;53.12;101314.31;4992831;28;45325;-79
2021/08/16 02:35:25;;;;;;;;;4.00;2.75;;;;;21.98;52.57;101312.94;4983632;28;45367;-80
2021/08/16 02:37:51;;;;;;;;;3.25;2.00;;;;;21.92;52.22;101308.91;5001643;28;45734;-79
2021/08/16 02:40:17;;;;;;;;;4.75;2.50;;;;;21.86;52.46;101315.56;5000737;28;45372;-80
2021/08/16 02:42:42;;;;;;;;;4.25;4.00;;;;;21.85;52.84;101310.28;5000898;28;45354;-80
2021/08/16 02:45:09;;;;;;;;;3.00;2.00;;;;;21.87;52.89;101319.09;4983411;28;45449;-81
2021/08/16 02:47:35;;;;;;;;;3.25;3.00;;;;;21.84;52.71;101305.91;4983480;28;46168;-81
2021/08/16 02:50:00;;;;;;;;;1.75;1.75;;;;;21.78;52.79;101307.22;5000522;28;46678;-81
2021/08/16 02:52:26;;;;;;;;;4.00;3.75;;;;;21.80;53.42;101307.97;4999829;28;45230;-81
2021/08/16 02:54:51;;;;;;;;;6.50;2.75;;;;;21.83;53.41;101306.88;5001315;28;45513;-81
2021/08/16 02:57:20;;;;;;;;;3.50;3.25;;;;;21.83;53.18;101305.03;5000841;28;45245;-81
2021/08/16 02:59:46;;;;;;;;;2.00;2.00;;;;;21.76;53.25;101304.63;5000052;28;45550;-80
2021/08/16 03:02:11;;;;;;;;;3.50;2.00;;;;;21.73;53.58;101306.69;4999932;28;46853;-79
2021/08/16 03:04:37;;;;;;;;;4.25;2.00;;;;;21.70;53.54;101299.75;5001136;28;45499;-79
2021/08/16 03:07:03;;;;;;;;;4.00;4.00;;;;;21.65;53.63;101304.56;5000896;28;45245;-80
2021/08/16 03:09:29;;;;;;;;;3.00;2.00;;;;;21.65;54.07;101313.44;5000295;28;45474;-80
2021/08/16 03:11:55;;;;;;;;;1.75;1.00;;;;;21.66;54.13;101303.56;5000654;28;45386;-79
2021/08/16 03:14:20;;;;;;;;;3.00;3.00;;;;;21.71;54.30;101309.44;5000894;28;45404;-79
2021/08/16 03:16:46;;;;;;;;;4.25;1.75;;;;;21.70;54.30;101305.09;5000713;28;45324;-79
2021/08/16 03:19:11;;;;;;;;;3.25;3.25;;;;;21.70;54.32;101318.47;5009745;28;46188;-79
2021/08/16 03:21:37;;;;;;;;;4.25;2.25;;;;;21.70;54.78;101307.75;5002724;28;45487;-79
2021/08/16 03:24:02;;;;;;;;;5.00;2.00;;;;;21.73;54.88;101306.69;5000805;28;45530;-79
2021/08/16 03:26:28;;;;;;;;;5.00;3.75;;;;;21.79;54.25;101301.75;5000375;28;45278;-79
2021/08/16 03:28:53;;;;;;;;;4.25;4.00;;;;;21.89;54.15;101307.31;4999720;28;46393;-83
2021/08/16 03:31:19;;;;;;;;;2.75;2.50;;;;;21.95;54.72;101311.38;5000437;28;45280;-83
2021/08/16 03:33:45;;;;;;;;;7.00;4.00;;;;;21.96;54.49;101309.53;5000703;28;45419;-82
2021/08/16 03:36:11;;;;;;;;;5.75;4.00;;;;;22.01;54.53;101313.59;5000451;28;45364;-83
2021/08/16 03:38:36;;;;;;;;;3.75;3.00;;;;;22.05;54.46;101305.34;4999931;28;45424;-86
2021/08/16 03:41:02;;;;;;;;;3.25;3.25;;;;;22.11;53.81;101320.94;5000472;28;45352;-82
2021/08/16 03:43:28;;;;;;;;;2.50;2.50;;;;;22.02;53.81;101311.78;4999640;28;45233;-83
2021/08/16 03:45:54;;;;;;;;;4.75;2.75;;;;;21.90;53.59;101310.84;5000383;28;45528;-80
2021/08/16 03:48:19;;;;;;;;;4.25;2.25;;;;;21.77;53.83;101303.69;4999563;28;45412;-82
2021/08/16 03:50:45;;;;;;;;;6.25;3.25;;;;;21.75;54.52;101308.28;5000311;28;45258;-83
2021/08/16 03:53:10;;;;;;;;;4.75;2.00;;;;;21.75;54.47;101305.63;4982463;28;45340;-82
2021/08/16 03:55:35;;;;;;;;;4.50;2.00;;;;;21.78;54.95;101308.03;5000093;28;45306;-82
2021/08/16 03:58:01;;;;;;;;;3.75;2.50;;;;;21.77;54.79;101302.81;4981353;28;47460;-82
2021/08/16 04:00:26;;;;;;;;;3.00;3.00;;;;;21.79;54.56;101304.41;4999274;28;45285;-85
2021/08/16 04:02:52;;;;;;;;;2.75;2.00;;;;;21.76;54.00;101296.59;4982310;28;45464;-84
2021/08/16 04:05:17;;;;;;;;;4.50;2.25;;;;;21.69;54.80;101308.72;4999101;28;45486;-85
2021/08/16 04:07:44;;;;;;;;;8.50;2.25;;;;;21.70;54.60;101311.25;4982244;28;46996;-82
2021/08/16 04:10:14;;;;;;;;;4.00;3.00;;;;;21.71;54.37;101312.13;4999388;28;45420;-84
2021/08/16 04:12:39;;;;;;;;;3.25;3.25;;;;;21.67;54.77;101307.97;4982165;28;45267;-84
2021/08/16 04:15:11;;;;;;;;;3.00;3.00;;;;;21.57;54.43;101311.31;4981512;28;46255;-81
2021/08/16 04:17:36;;;;;;;;;6.25;3.00;;;;;21.49;54.57;101316.34;4981769;28;48173;-82
2021/08/16 04:20:03;;;;;;;;;2.25;1.75;;;;;21.41;54.37;101324.06;4999479;28;45483;-81
2021/08/16 04:22:28;;;;;;;;;4.25;1.50;;;;;21.36;54.88;101319.88;4999898;28;45293;-81
2021/08/16 04:24:53;;;;;;;;;1.25;1.25;;;;;21.38;54.86;101326.94;4999952;28;45389;-80
2021/08/16 04:27:19;;;;;;;;;2.00;2.00;;;;;21.40;54.49;101322.34;4981518;28;47191;-81
2021/08/16 04:29:44;;;;;;;;;2.00;2.00;;;;;21.42;55.04;101323.09;4981546;28;45703;-81
2021/08/16 04:32:10;;;;;;;;;6.00;2.00;;;;;21.43;54.63;101335.50;4981826;28;45251;-80
2021/08/16 04:34:35;;;;;;;;;3.00;3.00;;;;;21.42;54.77;101321.28;4999577;28;45252;-80
2021/08/16 04:37:00;;;;;;;;;4.25;2.50;;;;;21.43;54.55;101323.00;4981819;28;47914;-76
2021/08/16 04:39:26;;;;;;;;;2.00;2.00;;;;;21.43;54.17;101327.47;4998897;28;45221;-76
2021/08/16 04:41:51;;;;;;;;;4.75;2.50;;;;;21.40;54.59;101322.34;4998352;28;47067;-76
2021/08/16 04:44:16;;;;;;;;;5.00;2.00;;;;;21.36;54.23;101325.22;4982177;28;45409;-76
2021/08/16 04:46:42;;;;;;;;;1.00;1.00;;;;;21.34;54.50;101324.47;4977441;28;46302;-76
2021/08/16 04:49:07;;;;;;;;;1.75;1.75;;;;;21.32;54.49;101326.41;4980162;28;45260;-76
2021/08/16 04:51:32;;;;;;;;;1.25;1.00;;;;;21.33;54.69;101333.47;4961676;28;45432;-76
2021/08/16 04:53:58;;;;;;;;;4.75;1.75;;;;;21.29;55.06;101320.41;4979876;28;45504;-76
2021/08/16 04:56:23;;;;;;;;;3.50;2.75;;;;;21.27;53.95;101330.34;4979592;28;45414;-76
2021/08/16 04:58:48;;;;;;;;;2.00;2.00;;;;;21.22;54.49;101323.53;4979854;28;45294;-76
2021/08/16 05:01:13;;;;;;;;;3.00;3.00;;;;;21.18;54.82;101327.38;4977032;28;45936;-76
2021/08/16 05:03:39;;;;;;;;;2.50;1.00;;;;;21.17;54.76;101339.00;4977601;28;45528;-76
2021/08/16 05:06:06;;;;;;;;;2.00;2.00;;;;;21.22;55.25;101336.03;4978525;28;45381;-76
2021/08/16 05:08:35;;;;;;;;;1.75;1.75;;;;;21.26;55.28;101337.50;4978682;28;45528;-76
2021/08/16 05:11:00;;;;;;;;;2.00;1.00;;;;;21.28;55.24;101338.28;4978699;28;45476;-76
2021/08/16 05:13:26;;;;;;;;;2.25;2.00;;;;;21.26;55.01;101329.50;4979002;28;45309;-76
2021/08/16 05:15:51;;;;;;;;;3.00;1.25;;;;;21.25;54.92;101336.69;4963271;28;47266;-76
2021/08/16 05:18:17;;;;;;;;;3.00;2.00;;;;;21.22;54.75;101346.72;4983162;28;45238;-76
2021/08/16 05:20:42;;;;;;;;;4.00;3.00;;;;;21.17;55.05;101346.16;4983210;28;45269;-76
2021/08/16 05:23:07;;;;;;;;;1.00;1.00;;;;;21.18;54.54;101340.75;4982376;28;45687;-76
2021/08/16 05:25:33;;;;;;;;;3.50;2.25;;;;;21.13;55.19;101345.53;4982931;28;45703;-76
2021/08/16 05:27:59;;;;;;;;;2.25;2.00;;;;;21.11;54.94;101342.97;4982340;28;45655;-76
2021/08/16 05:30:24;;;;;;;;;1.50;1.25;;;;;21.08;54.20;101347.66;4965301;28;45384;-76
2021/08/16 05:32:50;;;;;;;;;3.50;2.00;;;;;20.98;54.73;101356.28;4982292;28;45474;-76
2021/08/16 05:35:16;;;;;;;;;3.25;1.75;;;;;20.90;54.92;101358.63;4982351;28;46407;-76
2021/08/16 05:37:41;;;;;;;;;3.00;3.00;;;;;20.85;55.03;101369.63;4982150;28;45464;-76
2021/08/16 05:40:08;;;;;;;;;1.25;1.25;;;;;20.77;55.46;101363.91;4981181;28;45504;-74
2021/08/16 05:42:34;;;;;;;;;5.50;3.00;;;;;20.77;55.08;101358.56;4981655;28;45518;-75
2021/08/16 05:45:02;;;;;;;;;2.25;2.00;;;;;20.73;56.04;101362.41;4963057;28;47718;-74
2021/08/16 05:47:28;;;;;;;;;1.75;1.75;;;;;20.71;56.06;101369.69;4982187;28;45663;-75
2021/08/16 05:49:54;;;;;;;;;2.00;1.00;;;;;20.68;56.06;101376.94;4981991;28;45450;-74
2021/08/16 05:52:19;;;;;;;;;1.25;1.25;;;;;20.72;56.52;101382.91;4964243;28;46187;-74
2021/08/16 05:54:45;;;;;;;;;2.00;2.00;;;;;20.75;56.46;101371.19;4985554;28;45657;-75
2021/08/16 05:57:10;;;;;;;;;2.00;2.00;;;;;20.85;56.60;101387.44;4982034;28;45454;-75
2021/08/16 05:59:35;;;;;;;;;5.00;1.50;;;;;20.89;56.05;101387.13;4982226;28;45455;-75
2021/08/16 06:02:01;;;;;;;;;1.75;1.00;;;;;20.96;55.37;101387.59;4982005;28;45346;-75
2021/08/16 06:04:26;;;;;;;;;3.75;1.00;;;;;20.94;55.90;101383.31;4981672;28;45406;-75
2021/08/16 06:06:51;;;;;;;;;3.00;2.00;;;;;20.86;55.83;101387.38;4981965;28;45332;-75
2021/08/16 06:09:17;;;;;;;;;1.50;1.50;;;;;20.81;56.46;101392.16;4982027;28;45929;-75
2021/08/16 06:11:42;;;;;;;;;2.75;1.00;;;;;20.89;55.52;101386.31;4981497;28;45562;-74
2021/08/16 06:14:07;;;;;;;;;0.25;0.25;;;;;20.90;55.97;101386.19;4964090;28;47274;-74
2021/08/16 06:16:33;;;;;;;;;3.00;1.00;;;;;20.96;56.10;101384.94;4964366;28;46271;-74
2021/08/16 06:18:58;;;;;;;;;2.50;1.00;;;;;21.04;55.84;101387.09;4981753;28;45404;-74
2021/08/16 06:21:23;;;;;;;;;3.25;2.00;;;;;21.13;55.44;101380.28;4982040;28;45484;-76
2021/08/16 06:23:49;;;;;;;;;2.50;2.00;;;;;21.19;55.88;101384.34;4981340;28;45519;-76
2021/08/16 06:26:14;;;;;;;;;1.00;1.00;;;;;21.22;55.30;101379.66;4964706;28;45309;-76
2021/08/16 06:28:40;;;;;;;;;2.00;1.00;;;;;21.21;55.49;101379.78;4980794;28;45747;-77
2021/08/16 06:31:07;;;;;;;;;1.75;1.00;;;;;21.25;55.63;101381.25;4981729;28;45195;-77
2021/08/16 06:33:36;;;;;;;;;1.00;1.00;;;;;21.19;55.52;101389.69;4981379;28;45514;-77
2021/08/16 06:36:01;;;;;;;;;4.00;2.25;;;;;21.19;55.61;101395.03;4981552;28;45683;-77
2021/08/16 06:38:27;;;;;;;;;2.25;2.00;;;;;21.25;55.89;101389.28;4981573;28;45551;-77
2021/08/16 06:40:54;;;;;;;;;0.75;0.75;;;;;21.31;55.42;101388.00;4980972;28;45535;-77
2021/08/16 06:43:21;;;;;;;;;2.50;1.50;;;;;21.35;55.49;101389.50;4963558;28;47281;-77
2021/08/16 06:45:46;;;;;;;;;3.00;1.00;;;;;21.41;55.76;101398.94;4979513;28;45190;-78
2021/08/16 06:48:13;;;;;;;;;2.25;2.00;;;;;21.45;55.52;101395.06;4981080;28;45476;-77
2021/08/16 06:50:39;;;;;;;;;0.75;0.75;;;;;21.45;55.52;101411.13;4981874;28;45346;-77
2021/08/16 06:53:05;;;;;;;;;1.75;1.00;;;;;21.39;54.96;101403.50;4980702;28;45338;-77
2021/08/16 06:55:30;;;;;;;;;1.75;1.00;;;;;21.31;55.45;101409.41;4967910;28;45282;-77
2021/08/16 06:57:56;;;;;;;;;0.25;0.25;;;;;21.21;55.69;101401.16;4981294;28;45463;-77
2021/08/16 07:00:21;;;;;;;;;1.25;1.25;;;;;21.18;55.78;101404.88;4962721;28;46013;-77
2021/08/16 07:02:47;;;;;;;;;1.00;1.00;;;;;21.21;55.30;101401.16;4962375;28;48132;-77
2021/08/16 07:05:12;;;;;;;;;0.75;0.75;;;;;21.16;56.15;101411.28;4980894;28;45314;-77
2021/08/16 07:07:38;;;;;;;;;1.50;1.25;;;;;21.19;55.80;101411.06;4981735;28;45176;-77
2021/08/16 07:10:04;;;;;;;;;0.50;0.50;;;;;21.18;56.21;101412.03;4980653;28;45228;-77
2021/08/16 07:12:29;;;;;;;;;1.50;1.00;;;;;21.18;56.45;101412.03;4981143;28;45218;-77
2021/08/16 07:14:55;;;;;;;;;1.00;1.00;;;;;21.20;56.56;101410.13;4980811;28;45241;-77
2021/08/16 07:17:20;;;;;;;;;1.75;1.00;;;;;21.30;56.63;101410.34;4981408;28;45473;-77
2021/08/16 07:19:46;;;;;;;;;1.00;1.00;;;;;21.31;56.24;101420.94;4981174;28;45345;-77
2021/08/16 07:22:11;;;;;;;;;1.00;1.00;;;;;21.33;56.04;101429.72;4981090;28;45345;-77
2021/08/16 07:24:36;;;;;;;;;1.25;1.25;;;;;21.40;55.74;101423.94;4962852;28;45264;-77
2021/08/16 07:27:02;;;;;;;;;1.00;1.00;;;;;21.42;56.16;101417.53;4980789;28;45255;-77
2021/08/16 07:29:29;;;;;;;;;1.00;1.00;;;;;21.48;56.09;101418.94;4980888;28;45425;-77
2021/08/16 07:31:55;;;;;;;;;1.00;1.00;;;;;21.52;55.82;101411.53;4980531;28;45480;-77
2021/08/16 07:34:22;;;;;;;;;1.00;1.00;;;;;21.54;56.27;101422.97;4980969;28;45265;-77
2021/08/16 07:36:48;;;;;;;;;0.75;0.75;;;;;21.53;56.06;101430.13;4981013;28;45340;-77
2021/08/16 07:39:14;;;;;;;;;1.50;1.50;;;;;21.50;55.95;101430.38;4980867;28;45531;-77
2021/08/16 07:41:39;;;;;;;;;2.25;1.00;;;;;21.41;56.10;101421.16;4954444;28;47571;-77
2021/08/16 07:44:05;;;;;;;;;0.25;0.25;;;;;21.38;56.01;101421.38;4980001;28;45294;-77
2021/08/16 07:46:30;;;;;;;;;0.00;0.00;;;;;21.43;56.39;101431.75;4980919;28;45337;-76
2021/08/16 07:48:55;;;;;;;;;0.50;0.50;;;;;21.41;56.37;101425.66;4980009;28;45399;-77
2021/08/16 07:51:21;;;;;;;;;0.25;0.25;;;;;21.46;56.64;101420.84;4977877;28;45265;-80
2021/08/16 07:53:46;;;;;;;;;0.25;0.25;;;;;21.48;56.56;101425.13;4980307;28;45264;-79
2021/08/16 07:56:11;;;;;;;;;0.00;0.00;;;;;21.51;56.16;101437.41;4962575;28;45583;-78
2021/08/16 07:58:37;;;;;;;;;0.00;0.00;;;;;21.50;56.18;101434.88;4963169;28;45849;-77
2021/08/16 08:01:02;;;;;;;;;1.00;1.00;;;;;21.46;56.49;101429.72;4961607;28;48246;-77
2021/08/16 08:03:29;;;;;;;;;1.50;0.50;;;;;21.47;56.38;101430.56;4980313;28;45321;-79
2021/08/16 08:05:55;;;;;;;;;0.00;0.00;;;;;21.43;56.60;101434.44;4981107;28;45395;-89
2021/08/16 08:08:22;;;;;;;;;0.00;0.00;;;;;21.40;56.59;101434.63;4971349;28;46499;-89
2021/08/16 08:10:47;;;;;;;;;1.00;1.00;;;;;21.39;57.17;101439.13;4977431;28;45525;-88
2021/08/16 19:02:43;;;;;;;;;33.75;26.75;;;;;20.77;43.79;101890.16;4990289;28;73415;-83
2021/08/16 19:05:11;;;;;;;;;29.25;22.50;;;;;20.74;43.87;101898.38;4999576;28;45603;-83
2021/08/16 19:07:36;;;;;;;;;34.50;26.75;;;;;20.73;44.03;101901.97;5001247;28;45311;-84
2021/08/16 19:10:04;;;;;;;;;33.00;23.00;;;;;20.74;44.12;101917.06;4999951;28;45287;-84
2021/08/16 19:12:30;;;;;;;;;31.25;27.00;;;;;20.67;44.12;101906.72;4998154;28;46581;-85
2021/08/16 19:14:55;;;;;;;;;23.25;20.50;;;;;20.68;44.35;101912.94;5000051;28;45386;-85
2021/08/16 19:17:20;;;;;;;;;24.50;21.50;;;;;20.67;44.41;101913.88;5000782;28;45410;-84
2021/08/16 19:19:46;;;;;;;;;28.50;22.75;;;;;20.60;44.38;101913.38;4999655;28;45712;-85
2021/08/16 19:22:11;;;;;;;;;21.75;20.50;;;;;20.59;44.63;101914.31;4982618;28;47268;-84
2021/08/16 19:24:37;;;;;;;;;25.50;22.25;;;;;20.54;44.58;101919.06;5000953;28;45388;-85
2021/08/16 19:27:06;;;;;;;;;28.00;24.50;;;;;20.56;44.81;101927.84;5000253;28;45374;-85
2021/08/16 19:29:32;;;;;;;;;32.50;26.00;;;;;20.54;44.51;101925.28;4999335;28;45537;-84
2021/08/16 19:31:57;;;;;;;;;24.00;24.00;;;;;20.57;44.92;101934.88;5000489;28;46201;-84
2021/08/16 19:34:23;;;;;;;;;26.50;22.00;;;;;20.58;45.10;101937.50;5000367;28;45214;-85
2021/08/16 19:36:48;;;;;;;;;27.25;23.00;;;;;20.61;44.93;101939.13;4999707;28;45437;-84
2021/08/16 19:39:15;;;;;;;;;33.00;27.75;;;;;20.60;44.84;101945.41;5000154;28;45334;-84
2021/08/16 19:41:41;;;;;;;;;33.00;28.50;;;;;20.57;45.02;101948.25;5000554;28;46442;-84
2021/08/16 19:44:08;;;;;;;;;29.50;25.75;;;;;20.54;45.07;101951.97;4982298;28;45454;-84
2021/08/16 19:46:34;;;;;;;;;29.75;24.50;;;;;20.52;45.25;101951.19;5000391;28;45237;-85
2021/08/16 19:48:59;;;;;;;;;28.50;26.50;;;;;20.50;45.26;101957.56;5000136;28;45483;-85
2021/08/16 19:51:24;;;;;;;;;33.25;25.25;;;;;20.44;45.60;101951.63;5000174;28;45308;-84
2021/08/16 19:53:52;;;;;;;;;26.50;21.50;;;;;20.48;45.55;101979.00;5000171;28;45217;-85
2021/08/16 19:56:18;;;;;;;;;29.50;26.75;;;;;20.38;45.74;101967.13;5000527;28;45170;-84
2021/08/16 19:58:43;;;;;;;;;30.00;26.00;;;;;20.35;45.61;101970.81;4999568;28;45279;-84
2021/08/16 20:01:08;;;;;;;;;28.75;23.50;;;;;20.33;46.13;101967.38;4999678;28;46266;-84
2021/08/16 20:03:34;;;;;;;;;32.25;27.50;;;;;20.31;45.60;101971.94;5000377;28;45363;-84
2021/08/16 20:05:59;;;;;;;;;32.25;24.50;;;;;20.32;45.87;101976.34;5000209;28;45491;-85
2021/08/16 20:08:30;;;;;;;;;33.50;25.50;;;;;20.30;46.24;101991.56;4999804;28;45340;-85
2021/08/16 20:10:55;;;;;;;;;29.25;25.50;;;;;20.26;46.09;102000.69;4999060;28;45418;-84
2021/08/16 20:13:21;;;;;;;;;29.25;24.00;;;;;20.26;46.46;102006.03;4999837;28;45159;-84
2021/08/16 20:15:46;;;;;;;;;35.75;27.75;;;;;20.21;46.50;102001.81;4999921;28;45205;-84
2021/08/16 20:18:11;;;;;;;;;31.25;21.25;;;;;20.21;46.38;102008.94;4999402;28;45176;-84
2021/08/16 20:20:37;;;;;;;;;30.50;26.25;;;;;20.17;46.40;101997.59;4999855;28;46437;-84
2021/08/16 20:23:03;;;;;;;;;27.50;25.25;;;;;20.16;46.39;102003.88;4999969;28;45236;-84
2021/08/16 20:25:28;;;;;;;;;30.00;25.75;;;;;20.12;46.40;101999.66;4999666;28;45324;-85
2021/08/16 20:27:53;;;;;;;;;36.00;28.75;;;;;20.12;46.40;102002.31;4999253;28;45266;-84
2021/08/16 20:30:19;;;;;;;;;28.75;23.25;;;;;20.12;46.42;102004.97;4999632;28;45576;-84
2021/08/16 20:32:44;;;;;;;;;31.50;27.75;;;;;20.07;46.51;101997.19;4981969;28;45403;-85
2021/08/16 20:35:09;;;;;;;;;33.00;28.25;;;;;20.08;46.93;102006.03;5000048;28;45824;-85
2021/08/16 20:37:35;;;;;;;;;33.50;26.00;;;;;20.04;46.49;102005.34;4998058;28;45403;-85
2021/08/16 20:40:01;;;;;;;;;33.50;27.50;;;;;20.02;46.82;102008.13;4989500;28;45424;-83
2021/08/16 20:42:26;;;;;;;;;30.75;26.75;;;;;19.97;46.53;102002.16;4999100;28;45289;-82
2021/08/16 20:44:52;;;;;;;;;30.00;27.75;;;;;19.93;47.03;102003.25;4999956;28;45410;-81
2021/08/16 20:47:17;;;;;;;;;34.75;29.00;;;;;19.92;47.24;102009.53;4988687;28;45329;-81
2021/08/16 20:49:43;;;;;;;;;28.50;25.50;;;;;19.78;47.46;102016.44;5001897;28;45399;-82
2021/08/16 20:52:09;;;;;;;;;34.25;30.50;;;;;19.67;47.39;102018.81;5003111;28;45422;-82
2021/08/16 20:54:35;;;;;;;;;27.50;25.00;;;;;19.58;47.87;102006.84;5003078;28;45218;-83
2021/08/16 20:57:00;;;;;;;;;31.50;27.50;;;;;19.55;47.97;102020.31;4991273;28;45221;-79
2021/08/16 20:59:25;;;;;;;;;30.75;25.50;;;;;19.48;47.95;102022.44;5002285;28;46743;-79
2021/08/16 21:01:51;;;;;;;;;34.00;31.00;;;;;19.41;48.66;102016.53;5002527;28;45216;-79
2021/08/16 21:04:16;;;;;;;;;34.00;25.50;;;;;19.41;48.50;102021.03;4998283;28;45353;-79
2021/08/16 21:06:41;;;;;;;;;32.50;27.50;;;;;19.42;49.09;102017.41;4996403;28;45438;-79
2021/08/16 21:09:07;;;;;;;;;34.25;28.50;;;;;19.41;48.93;102016.53;5001523;28;46163;-79
2021/08/16 21:11:32;;;;;;;;;30.25;25.00;;;;;19.43;49.34;102009.31;5002229;28;45292;-79
2021/08/16 21:13:57;;;;;;;;;32.00;27.25;;;;;19.51;49.12;102026.72;5001650;28;45221;-79
2021/08/16 21:16:23;;;;;;;;;36.25;24.75;;;;;19.52;49.08;102023.13;5002522;28;45660;-79
2021/08/16 21:18:49;;;;;;;;;29.00;24.50;;;;;19.51;49.13;102022.25;4978062;28;46190;-79
2021/08/16 21:21:15;;;;;;;;;32.50;28.00;;;;;19.46;49.52;102024.28;5002194;28;45392;-80
2021/08/16 21:23:42;;;;;;;;;36.25;30.75;;;;;19.37;49.56;102024.75;5002913;28;45324;-79
2021/08/16 21:26:07;;;;;;;;;31.75;29.25;;;;;19.27;49.62;102025.22;4991724;28;45514;-79
2021/08/16 21:28:33;;;;;;;;;34.50;29.75;;;;;19.23;50.28;102029.88;5000771;28;46236;-78
2021/08/16 21:30:58;;;;;;;;;32.50;28.00;;;;;19.22;50.31;102024.59;4999009;28;45272;-79
2021/08/16 21:33:23;;;;;;;;;30.75;27.00;;;;;19.22;49.72;102030.78;5002603;28;45273;-79
2021/08/16 21:35:51;;;;;;;;;29.25;28.25;;;;;19.21;50.15;102030.88;4998921;28;45607;-78
2021/08/16 21:38:16;;;;;;;;;31.00;28.50;;;;;19.21;50.38;102023.72;5000333;28;46324;-79
2021/08/16 21:40:42;;;;;;;;;33.25;26.00;;;;;19.24;50.48;102036.03;5001884;28;45165;-79
2021/08/16 21:43:07;;;;;;;;;35.25;30.50;;;;;19.28;50.56;102021.63;5002430;28;45278;-79
2021/08/16 21:45:33;;;;;;;;;33.25;28.50;;;;;19.32;50.35;102028.53;4997416;28;45637;-79
2021/08/16 21:47:58;;;;;;;;;26.50;23.00;;;;;19.36;50.71;102029.22;5001861;28;46214;-79
2021/08/16 21:50:23;;;;;;;;;21.00;15.00;;;;;19.36;50.70;102023.91;5001711;28;45321;-79
2021/08/16 21:52:50;;;;;;;;;30.75;29.25;;;;;19.38;50.51;102034.50;5001994;28;45511;-79
2021/08/16 21:55:16;;;;;;;;;34.75;28.25;;;;;19.33;50.53;102034.72;4983799;28;45445;-79
2021/08/16 21:57:41;;;;;;;;;31.50;19.50;;;;;19.29;51.15;102031.34;4995691;28;45317;-79
2021/08/16 22:00:13;;;;;;;;;31.75;26.50;;;;;19.31;50.91;102036.63;5001857;28;45419;-79
2021/08/16 22:02:40;;;;;;;;;30.75;28.00;;;;;19.30;51.12;102043.75;5001586;28;45261;-80
2021/08/16 22:05:06;;;;;;;;;29.25;27.25;;;;;19.25;51.07;102035.09;5001110;28;45304;-79